createdAt,value
2019-04-20T00:01:19.908Z,6.87
2019-04-20T00:03:45.634Z,6.73
2019-04-20T00:06:15.344Z,7.23
2019-04-20T00:08:46.263Z,6.90
2019-04-20T00:11:20.986Z,7.05
2019-04-20T00:13:54.957Z,7.03
2019-04-20T00:16:18.910Z,6.70
2019-04-20T00:18:53.088Z,7.00
2019-04-20T00:21:46.981Z,7.00
2019-04-20T00:24:27.575Z,6.73
2019-04-20T00:27:15.876Z,7.10
2019-04-20T00:29:45.422Z,7.13
2019-04-20T00:32:06.399Z,7.20
2019-04-20T00:34:32.016Z,7.13
2019-04-20T00:37:00.279Z,6.90
2019-04-20T00:39:32.023Z,6.87
2019-04-20T00:42:06.705Z,7.10
2019-04-20T00:44:35.903Z,7.10
2019-04-20T00:47:18.126Z,7.43
2019-04-20T00:49:48.146Z,6.90
2019-04-20T00:54:38.803Z,7.83
2019-04-20T00:57:21.728Z,7.67
2019-04-20T01:00:09.377Z,7.93
2019-04-20T01:02:27.539Z,7.70
2019-04-20T01:05:04.108Z,7.87
2019-04-20T01:07:37.747Z,7.80
2019-04-20T01:10:09.167Z,7.20
2019-04-20T01:12:40.722Z,8.30
2019-04-20T01:15:16.832Z,8.00
2019-04-20T01:17:43.084Z,7.90
2019-04-20T01:20:13.094Z,7.53
2019-04-20T01:22:51.478Z,8.33
2019-04-20T01:25:22.644Z,8.00
2019-04-20T01:28:04.488Z,8.60
2019-04-20T01:30:25.126Z,8.93
2019-04-20T01:33:06.209Z,8.10
2019-04-20T01:35:41.003Z,8.67
2019-04-20T01:38:12.175Z,8.07
2019-04-20T01:40:23.407Z,8.80
2019-04-20T01:42:53.207Z,8.43
2019-04-20T01:45:30.793Z,9.07
2019-04-20T01:47:56.232Z,8.43
2019-04-20T01:50:30.072Z,8.30
2019-04-20T01:53:10.086Z,9.57
2019-04-20T01:55:45.725Z,9.70
2019-04-20T01:58:37.864Z,9.10
2019-04-20T02:01:11.981Z,8.90
2019-04-20T02:04:03.214Z,8.80
2019-04-20T02:06:39.881Z,9.00
2019-04-20T02:09:13.481Z,8.53
2019-04-20T02:11:43.137Z,8.70
2019-04-20T02:14:12.460Z,9.13
2019-04-20T02:16:47.404Z,8.87
2019-04-20T02:19:27.852Z,8.13
2019-04-20T02:22:01.551Z,8.80
2019-04-20T02:24:16.421Z,9.90
2019-04-20T02:26:47.209Z,8.70
2019-04-20T02:29:42.629Z,9.37
2019-04-20T02:32:29.244Z,9.23
2019-04-20T02:35:14.234Z,9.93
2019-04-20T02:37:56.610Z,8.93
2019-04-20T02:40:15.418Z,9.77
2019-04-20T02:43:05.442Z,9.40
2019-04-20T02:47:57.251Z,9.40
2019-04-20T02:50:19.048Z,9.13
2019-04-20T02:53:10.916Z,9.00
2019-04-20T02:55:38.117Z,8.47
2019-04-20T02:58:00.633Z,9.13
2019-04-20T03:00:36.732Z,9.37
2019-04-20T03:02:42.631Z,9.30
2019-04-20T03:05:14.868Z,9.37
2019-04-20T03:07:54.437Z,8.97
2019-04-20T03:10:23.693Z,9.03
2019-04-20T03:12:59.729Z,9.40
2019-04-20T03:15:31.466Z,9.77
2019-04-20T03:17:58.692Z,9.93
2019-04-20T03:20:37.467Z,9.03
2019-04-20T03:25:55.667Z,9.10
2019-04-20T03:28:23.860Z,9.43
2019-04-20T03:33:53.750Z,9.40
2019-04-20T03:36:12.095Z,9.10
2019-04-20T03:38:33.024Z,9.10
2019-04-20T03:40:56.474Z,9.20
2019-04-20T03:43:15.971Z,9.43
2019-04-20T03:45:55.597Z,10.07
2019-04-20T03:48:35.929Z,9.20
2019-04-20T03:51:07.448Z,9.33
2019-04-20T03:53:39.748Z,10.27
2019-04-20T03:56:34.855Z,9.47
2019-04-20T03:59:04.623Z,10.13
2019-04-20T04:02:15.910Z,9.83
2019-04-20T04:04:44.945Z,9.07
2019-04-20T04:07:01.849Z,9.17
2019-04-20T04:09:40.147Z,9.87
2019-04-20T04:12:42.850Z,9.47
2019-04-20T04:15:08.924Z,10.03
2019-04-20T04:17:42.292Z,10.00
2019-04-20T04:20:15.000Z,10.07
2019-04-20T04:22:58.408Z,10.30
2019-04-20T04:25:25.158Z,9.83
2019-04-20T04:28:01.367Z,9.43
2019-04-20T04:30:31.053Z,9.57
2019-04-20T04:33:32.716Z,9.10
2019-04-20T04:35:33.494Z,9.48
2019-04-20T04:38:05.815Z,9.93
2019-04-20T04:40:49.804Z,9.70
2019-04-20T04:43:17.099Z,8.90
2019-04-20T04:45:31.688Z,9.50
2019-04-20T04:47:59.915Z,10.37
2019-04-20T04:50:31.801Z,10.03
2019-04-20T04:53:09.079Z,9.80
2019-04-20T04:55:41.758Z,9.77
2019-04-20T04:58:04.401Z,9.57
2019-04-20T05:00:35.947Z,9.53
2019-04-20T05:03:31.062Z,9.73
2019-04-20T05:06:13.091Z,10.13
2019-04-20T05:08:31.735Z,10.13
2019-04-20T05:10:56.251Z,9.90
2019-04-20T05:13:35.692Z,10.20
2019-04-20T05:16:08.104Z,10.17
2019-04-20T05:18:55.436Z,9.50
2019-04-20T05:21:34.213Z,10.20
2019-04-20T05:24:06.154Z,10.00
2019-04-20T05:26:53.126Z,10.30
2019-04-20T05:29:08.453Z,10.30
2019-04-20T05:31:40.400Z,10.37
2019-04-20T05:34:25.704Z,10.03
2019-04-20T05:36:49.279Z,10.10
2019-04-20T05:41:51.474Z,10.73
2019-04-20T05:44:41.743Z,10.53
2019-04-20T05:47:11.331Z,10.27
2019-04-20T05:49:34.837Z,10.20
2019-04-20T05:52:24.384Z,10.87
2019-04-20T05:54:49.276Z,10.53
2019-04-20T05:57:21.334Z,10.23
2019-04-20T05:59:54.322Z,10.73
2019-04-20T06:02:16.991Z,10.67
2019-04-20T06:05:00.400Z,10.63
2019-04-20T06:07:21.141Z,10.30
2019-04-20T06:09:54.563Z,10.63
2019-04-20T06:12:19.826Z,10.23
2019-04-20T06:15:18.067Z,10.33
2019-04-20T06:18:02.471Z,11.03
2019-04-20T06:20:41.079Z,11.80
2019-04-20T06:23:34.328Z,10.70
2019-04-20T06:26:12.837Z,10.97
2019-04-20T06:28:25.838Z,11.23
2019-04-20T06:30:56.913Z,10.63
2019-04-20T06:36:47.178Z,11.10
2019-04-20T06:39:20.038Z,9.80
2019-04-20T06:44:24.233Z,10.70
2019-04-20T06:47:01.378Z,10.37
2019-04-20T06:49:31.431Z,10.13
2019-04-20T06:52:12.768Z,11.03
2019-04-20T06:55:23.465Z,10.10
2019-04-20T06:57:55.091Z,10.57
2019-04-20T07:00:16.577Z,10.13
2019-04-20T07:05:18.758Z,10.00
2019-04-20T07:07:54.821Z,9.40
2019-04-20T07:10:28.565Z,10.23
2019-04-20T07:12:45.098Z,10.40
2019-04-20T07:15:19.861Z,10.23
2019-04-20T07:17:57.574Z,10.57
2019-04-20T07:20:49.080Z,10.50
2019-04-20T07:23:24.245Z,9.80
2019-04-20T07:25:43.385Z,10.43
2019-04-20T07:28:24.264Z,10.73
2019-04-20T07:30:46.269Z,10.10
2019-04-20T07:33:21.747Z,10.37
2019-04-20T07:35:49.218Z,9.30
2019-04-20T07:40:49.959Z,9.17
2019-04-20T07:43:21.493Z,9.60
2019-04-20T07:45:55.901Z,9.40
2019-04-20T07:48:27.780Z,9.37
2019-04-20T07:50:48.662Z,12.47
2019-04-20T07:53:25.414Z,9.33
2019-04-20T07:56:02.397Z,9.33
2019-04-20T07:58:23.108Z,9.53
2019-04-20T08:01:15.416Z,8.90
2019-04-20T08:03:50.451Z,9.43
2019-04-20T08:06:46.172Z,9.90
2019-04-20T08:09:24.345Z,9.70
2019-04-20T08:12:15.385Z,10.40
2019-04-20T08:14:42.551Z,9.83
2019-04-20T08:19:41.136Z,10.43
2019-04-20T08:22:15.272Z,10.20
2019-04-20T08:24:37.659Z,9.07
2019-04-20T08:27:04.286Z,9.87
2019-04-20T08:29:47.236Z,10.50
2019-04-20T08:32:37.758Z,10.60
2019-04-20T08:35:15.383Z,9.93
2019-04-20T08:37:59.671Z,9.93
2019-04-20T08:40:24.351Z,10.40
2019-04-20T08:42:56.052Z,10.43
2019-04-20T08:45:23.690Z,9.93
2019-04-20T08:47:56.372Z,10.27
2019-04-20T08:50:22.330Z,10.83
2019-04-20T08:55:23.988Z,10.90
2019-04-20T08:57:38.064Z,9.63
2019-04-20T09:00:11.128Z,10.00
2019-04-20T09:02:47.966Z,10.10
2019-04-20T09:05:28.591Z,10.80
2019-04-20T09:07:53.773Z,10.43
2019-04-20T09:10:39.244Z,10.20
2019-04-20T09:13:03.973Z,10.40
2019-04-20T09:15:19.431Z,10.00
2019-04-20T09:18:01.175Z,9.87
2019-04-20T09:20:36.522Z,10.67
2019-04-20T09:23:17.217Z,9.60
2019-04-20T09:26:07.465Z,9.57
2019-04-20T09:28:35.441Z,9.07
2019-04-20T09:31:18.470Z,8.90
2019-04-20T09:34:06.516Z,8.87
2019-04-20T09:36:54.985Z,8.87
2019-04-20T09:39:44.978Z,10.35
2019-04-20T09:42:11.573Z,9.67
2019-04-20T09:44:47.413Z,9.50
2019-04-20T09:47:14.007Z,9.07
2019-04-20T09:49:54.882Z,8.90
2019-04-20T09:52:29.043Z,9.03
2019-04-20T09:55:03.233Z,8.43
2019-04-20T09:57:39.477Z,9.43
2019-04-20T10:00:08.674Z,8.50
2019-04-20T10:02:27.837Z,8.80
2019-04-20T10:04:53.817Z,8.97
2019-04-20T10:07:26.164Z,8.27
2019-04-20T10:09:55.672Z,9.20
2019-04-20T10:12:26.007Z,9.07
2019-04-20T10:14:57.608Z,8.90
2019-04-20T10:17:29.935Z,8.70
2019-04-20T10:20:03.457Z,9.07
2019-04-20T10:22:30.893Z,9.30
2019-04-20T10:25:00.356Z,9.80
2019-04-20T10:27:30.676Z,9.40
2019-04-20T10:30:03.772Z,9.40
2019-04-20T10:32:37.698Z,9.40
2019-04-20T10:35:04.413Z,8.90
2019-04-20T10:37:39.780Z,9.33
2019-04-20T10:40:11.354Z,8.53
2019-04-20T10:42:41.819Z,9.50
2019-04-20T10:45:12.754Z,8.43
2019-04-20T10:47:43.152Z,8.30
2019-04-20T10:50:13.313Z,8.40
2019-04-20T10:52:43.685Z,8.10
2019-04-20T10:55:14.582Z,9.07
2019-04-20T10:57:44.217Z,8.80
2019-04-20T11:00:15.462Z,8.60
2019-04-20T11:02:47.441Z,8.53
2019-04-20T11:05:16.950Z,8.30
2019-04-20T11:07:46.675Z,8.33
2019-04-20T11:10:25.008Z,8.03
2019-04-20T11:12:48.429Z,8.37
2019-04-20T11:15:18.664Z,8.43
2019-04-20T11:17:51.410Z,9.27
2019-04-20T11:20:21.376Z,8.67
2019-04-20T11:22:52.678Z,9.03
2019-04-20T11:25:24.180Z,9.00
2019-04-20T11:27:54.460Z,8.87
2019-04-20T11:30:24.136Z,9.40
2019-04-20T11:32:54.041Z,8.83
2019-04-20T11:35:30.465Z,8.80
2019-04-20T11:37:55.435Z,9.73
2019-04-20T11:40:25.060Z,8.93
2019-04-20T11:42:55.424Z,9.57
2019-04-20T11:45:24.994Z,8.93
2019-04-20T11:47:55.765Z,9.70
2019-04-20T11:50:25.415Z,10.17
2019-04-20T11:52:55.446Z,9.43
2019-04-20T11:55:24.816Z,9.57
2019-04-20T11:57:55.959Z,10.00
2019-04-20T12:00:45.850Z,10.03
2019-04-20T12:03:47.888Z,45.97
2019-04-20T12:06:08.597Z,31.83
2019-04-20T12:08:40.473Z,18.60
2019-04-20T12:11:22.794Z,14.53
2019-04-20T12:13:42.740Z,10.33
2019-04-20T12:16:14.121Z,39.57
2019-04-20T12:19:02.234Z,14.77
2019-04-20T12:21:32.751Z,11.53
2019-04-20T12:24:02.550Z,12.63
2019-04-20T12:26:32.988Z,14.30
2019-04-20T12:29:03.565Z,9.67
2019-04-20T12:31:33.538Z,19.13
2019-04-20T12:34:04.464Z,12.40
2019-04-20T12:36:35.329Z,11.53
2019-04-20T12:39:08.826Z,11.83
2019-04-20T12:41:44.910Z,12.60
2019-04-20T12:44:09.968Z,11.53
2019-04-20T12:46:39.658Z,9.57
2019-04-20T12:49:11.671Z,10.60
2019-04-20T12:51:48.480Z,9.23
2019-04-20T12:54:14.407Z,10.53
2019-04-20T12:56:44.683Z,9.50
2019-04-20T12:59:15.716Z,9.47
2019-04-20T13:01:47.002Z,16.63
2019-04-20T13:04:16.696Z,10.00
2019-04-20T13:06:47.199Z,9.90
2019-04-20T13:09:18.752Z,9.53
2019-04-20T13:12:04.586Z,9.53
2019-04-20T13:15:10.673Z,9.47
2019-04-20T13:17:41.889Z,8.60
2019-04-20T13:20:14.106Z,11.63
2019-04-20T13:22:44.326Z,9.40
2019-04-20T13:25:14.963Z,8.53
2019-04-20T13:27:45.053Z,11.00
2019-04-20T13:30:15.462Z,10.50
2019-04-20T13:32:46.235Z,9.13
2019-04-20T13:35:16.318Z,8.87
2019-04-20T13:37:46.899Z,10.77
2019-04-20T13:40:17.690Z,9.30
2019-04-20T13:42:47.670Z,8.80
2019-04-20T13:45:19.076Z,9.77
2019-04-20T13:47:49.074Z,9.70
2019-04-20T13:50:20.029Z,8.60
2019-04-20T13:52:51.030Z,8.90
2019-04-20T13:55:23.422Z,9.00
2019-04-20T13:58:00.011Z,9.63
2019-04-20T14:00:48.590Z,9.20
2019-04-20T14:03:18.725Z,8.93
2019-04-20T14:05:48.900Z,9.27
2019-04-20T14:08:23.248Z,10.13
2019-04-20T14:10:53.501Z,8.93
2019-04-20T14:13:24.493Z,8.70
2019-04-20T14:15:55.408Z,8.00
2019-04-20T14:18:26.916Z,8.43
2019-04-20T14:20:58.257Z,8.70
2019-04-20T14:23:28.217Z,8.87
2019-04-20T14:25:58.942Z,9.47
2019-04-20T14:28:29.103Z,10.03
2019-04-20T14:30:59.202Z,9.03
2019-04-20T14:33:28.794Z,8.80
2019-04-20T14:35:59.099Z,8.33
2019-04-20T14:38:30.588Z,8.93
2019-04-20T14:41:02.229Z,9.10
2019-04-20T14:43:33.522Z,8.33
2019-04-20T14:46:03.334Z,8.00
2019-04-20T14:48:32.878Z,8.63
2019-04-20T14:51:03.550Z,7.93
2019-04-20T14:53:33.620Z,7.97
2019-04-20T14:56:05.217Z,8.03
2019-04-20T14:58:45.276Z,8.80
2019-04-20T15:01:30.879Z,8.37
2019-04-20T15:04:06.907Z,7.80
2019-04-20T15:06:37.690Z,8.27
2019-04-20T15:09:08.751Z,8.40
2019-04-20T15:11:41.633Z,9.03
2019-04-20T15:14:11.289Z,7.30
2019-04-20T15:16:42.558Z,7.03
2019-04-20T15:19:33.650Z,7.93
2019-04-20T15:22:05.449Z,8.20
2019-04-20T15:24:37.705Z,7.60
2019-04-20T15:27:07.520Z,8.20
2019-04-20T15:29:38.177Z,7.20
2019-04-20T15:32:08.208Z,7.50
2019-04-20T15:34:39.156Z,8.00
2019-04-20T15:37:09.892Z,7.33
2019-04-20T15:39:41.077Z,7.53
2019-04-20T15:42:11.574Z,7.57
2019-04-20T15:44:41.166Z,8.10
2019-04-20T15:47:11.149Z,7.40
2019-04-20T15:49:42.025Z,8.07
2019-04-20T15:52:17.169Z,7.77
2019-04-20T15:54:43.425Z,7.77
2019-04-20T15:57:18.401Z,7.43
2019-04-20T15:59:46.374Z,7.67
2019-04-20T16:02:21.527Z,7.73
2019-04-20T16:05:16.470Z,7.60
2019-04-20T16:07:51.103Z,7.70
2019-04-20T16:10:19.180Z,7.40
2019-04-20T16:13:02.978Z,7.80
2019-04-20T16:15:22.073Z,7.43
2019-04-20T16:17:53.245Z,6.90
2019-04-20T16:20:25.455Z,7.47
2019-04-20T16:22:56.385Z,7.27
2019-04-20T16:25:48.259Z,6.63
2019-04-20T16:28:19.446Z,6.80
2019-04-20T16:30:49.760Z,7.30
2019-04-20T16:33:20.670Z,6.40
2019-04-20T16:35:50.668Z,6.90
2019-04-20T16:38:22.444Z,6.90
2019-04-20T16:40:52.526Z,6.83
2019-04-20T16:43:29.426Z,6.72
2019-04-20T16:45:54.998Z,6.07
2019-04-20T16:48:26.393Z,6.50
2019-04-20T16:50:56.398Z,6.50
2019-04-20T16:53:26.844Z,6.00
2019-04-20T16:55:57.379Z,6.40
2019-04-20T16:58:28.020Z,6.23
2019-04-20T17:00:59.259Z,6.57
2019-04-20T17:03:41.092Z,6.08
2019-04-20T17:06:00.246Z,6.00
2019-04-20T17:08:31.099Z,6.13
2019-04-20T17:11:01.547Z,5.30
2019-04-20T17:13:38.776Z,5.50
2019-04-20T17:16:04.158Z,5.70
2019-04-20T17:18:34.003Z,5.83
2019-04-20T17:21:13.913Z,5.63
2019-04-20T17:23:35.409Z,6.30
2019-04-20T17:26:08.207Z,5.90
2019-04-20T17:28:55.029Z,5.40
2019-04-20T17:31:33.224Z,5.20
2019-04-20T17:34:25.381Z,5.83
2019-04-20T17:36:40.405Z,5.13
2019-04-20T17:39:12.555Z,6.07
2019-04-20T17:42:00.547Z,6.30
2019-04-20T17:44:30.264Z,6.40
2019-04-20T17:46:56.871Z,5.90
2019-04-20T17:49:29.398Z,5.23
2019-04-20T17:52:12.249Z,6.00
2019-04-20T17:54:31.412Z,5.63
2019-04-20T17:57:02.273Z,5.90
2019-04-20T17:59:37.790Z,6.20
2019-04-20T18:02:54.536Z,6.73
2019-04-20T18:05:51.659Z,6.07
2019-04-20T18:08:20.523Z,5.60
2019-04-20T18:10:44.397Z,5.70
2019-04-20T18:13:08.003Z,5.80
2019-04-20T18:15:48.836Z,6.33
2019-04-20T18:18:39.048Z,6.40
2019-04-20T18:21:16.915Z,5.50
2019-04-20T18:23:48.599Z,5.63
2019-04-20T18:26:38.096Z,5.33
2019-04-20T18:29:12.269Z,5.03
2019-04-20T18:31:49.323Z,4.83
2019-04-20T18:34:36.471Z,4.87
2019-04-20T18:37:11.603Z,4.67
2019-04-20T18:39:46.231Z,4.37
2019-04-20T18:42:18.596Z,4.17
2019-04-20T18:45:06.049Z,4.27
2019-04-20T18:47:33.247Z,3.95
2019-04-20T18:49:55.203Z,4.40
2019-04-20T18:52:15.685Z,4.20
2019-04-20T18:54:48.425Z,4.00
2019-04-20T18:57:21.468Z,4.30
2019-04-20T18:59:54.151Z,3.70
2019-04-20T19:02:26.519Z,4.10
2019-04-20T19:04:51.680Z,4.30
2019-04-20T19:07:21.837Z,4.27
2019-04-20T19:09:55.286Z,4.10
2019-04-20T19:12:34.521Z,4.23
2019-04-20T19:15:20.640Z,4.67
2019-04-20T19:17:57.094Z,4.03
2019-04-20T19:20:39.127Z,3.80
2019-04-20T19:23:10.318Z,4.13
2019-04-20T19:25:42.410Z,4.50
2019-04-20T19:28:14.554Z,4.47
2019-04-20T19:30:50.332Z,4.93
2019-04-20T19:33:31.094Z,4.43
2019-04-20T19:35:56.388Z,4.57
2019-04-20T19:38:23.904Z,5.70
2019-04-20T19:40:58.388Z,3.90
2019-04-20T19:43:30.747Z,4.90
2019-04-20T19:46:29.746Z,4.50
2019-04-20T19:48:39.076Z,4.73
2019-04-20T19:51:19.202Z,4.87
2019-04-20T19:53:48.157Z,5.77
2019-04-20T19:56:09.889Z,4.80
2019-04-20T19:58:39.849Z,4.70
2019-04-20T20:01:02.888Z,5.07
2019-04-20T20:03:33.353Z,5.37
2019-04-20T20:06:03.895Z,5.03
2019-04-20T20:08:36.384Z,5.20
2019-04-20T20:11:08.469Z,5.57
2019-04-20T20:13:41.934Z,5.57
2019-04-20T20:16:14.513Z,5.73
2019-04-20T20:18:55.826Z,5.50
2019-04-20T20:21:23.739Z,5.60
2019-04-20T20:23:43.855Z,5.80
2019-04-20T20:26:23.041Z,5.93
2019-04-20T20:28:51.806Z,5.10
2019-04-20T20:31:27.559Z,5.70
2019-04-20T20:34:02.910Z,4.90
2019-04-20T20:36:30.762Z,4.80
2019-04-20T20:39:02.852Z,4.90
2019-04-20T20:41:29.974Z,5.30
2019-04-20T20:44:06.885Z,5.23
2019-04-20T20:46:34.764Z,5.40
2019-04-20T20:49:16.593Z,4.87
2019-04-20T20:51:54.074Z,5.10
2019-04-20T20:54:15.513Z,5.30
2019-04-20T20:56:46.698Z,5.23
2019-04-20T20:59:13.959Z,6.00
2019-04-20T21:01:50.275Z,5.23
2019-04-20T21:04:12.003Z,6.03
2019-04-20T21:06:42.560Z,6.00
2019-04-20T21:09:14.366Z,5.33
2019-04-20T21:11:44.366Z,5.57
2019-04-20T21:14:19.862Z,5.37
2019-04-20T21:16:53.148Z,5.53
2019-04-20T21:19:28.466Z,6.33
2019-04-20T21:21:55.683Z,6.10
2019-04-20T21:24:27.258Z,5.83
2019-04-20T21:27:00.649Z,7.43
2019-04-20T21:29:35.543Z,6.83
2019-04-20T21:32:08.165Z,7.80
2019-04-20T21:34:33.157Z,7.60
2019-04-20T21:37:11.599Z,7.80
2019-04-20T21:39:44.195Z,7.40
2019-04-20T21:42:12.546Z,7.60
2019-04-20T21:44:44.122Z,8.30
2019-04-20T21:47:09.654Z,7.60
2019-04-20T21:49:51.988Z,7.67
2019-04-20T21:52:21.489Z,7.63
2019-04-20T21:54:42.852Z,7.97
2019-04-20T21:57:14.648Z,7.97
2019-04-20T21:59:48.789Z,7.70
2019-04-20T22:02:21.642Z,8.20
2019-04-20T22:04:47.374Z,8.23
2019-04-20T22:07:16.911Z,8.20
2019-04-20T22:09:49.596Z,8.27
2019-04-20T22:12:18.321Z,8.53
2019-04-20T22:14:58.000Z,8.57
2019-04-20T22:17:25.938Z,8.97
2019-04-20T22:20:03.797Z,8.70
2019-04-20T22:22:39.788Z,8.87
2019-04-20T22:25:06.330Z,8.27
2019-04-20T22:27:30.051Z,8.63
2019-04-20T22:29:57.506Z,9.33
2019-04-20T22:32:28.118Z,8.23
2019-04-20T22:35:03.221Z,9.10
2019-04-20T22:37:38.162Z,9.40
2019-04-20T22:40:11.825Z,9.00
2019-04-20T22:42:46.487Z,8.90
2019-04-20T22:45:13.450Z,8.93
2019-04-20T22:47:44.013Z,9.07
2019-04-20T22:50:28.914Z,9.20
2019-04-20T22:52:55.904Z,9.10
2019-04-20T22:55:45.495Z,9.07
2019-04-20T22:58:01.315Z,9.23
2019-04-20T23:00:31.281Z,8.90
2019-04-20T23:02:52.418Z,9.53
2019-04-20T23:05:22.755Z,9.63
2019-04-20T23:07:52.673Z,10.10
2019-04-20T23:10:27.929Z,9.63
2019-04-20T23:12:57.815Z,10.20
2019-04-20T23:15:26.022Z,10.80
2019-04-20T23:17:55.935Z,10.47
2019-04-20T23:20:30.755Z,10.30
2019-04-20T23:22:58.542Z,10.50
2019-04-20T23:25:29.285Z,11.53
2019-04-20T23:28:08.129Z,10.37
2019-04-20T23:30:33.552Z,11.00
2019-04-20T23:33:04.273Z,10.37
2019-04-20T23:35:37.615Z,10.67
2019-04-20T23:38:11.012Z,10.80
2019-04-20T23:40:37.516Z,10.77
2019-04-20T23:43:18.487Z,10.73
2019-04-20T23:46:09.298Z,10.57
2019-04-20T23:48:50.076Z,11.00
2019-04-20T23:51:40.694Z,11.43
2019-04-20T23:53:59.608Z,11.27
2019-04-20T23:56:24.187Z,11.90
2019-04-20T23:58:56.724Z,12.10
